sensor_id;sensor_type;location;lat;lon;timestamp;temperature;humidity
1830;DHT22;914;48.118;11.600;2023-05-23T00:01:40;20.50;94.90
1830;DHT22;914;48.118;11.600;2023-05-23T00:04:07;20.60;94.80
1830;DHT22;914;48.118;11.600;2023-05-23T00:06:33;20.50;94.80
1830;DHT22;914;48.118;11.600;2023-05-23T00:09:01;20.40;95.10
1830;DHT22;914;48.118;11.600;2023-05-23T00:11:26;20.40;95.10
1830;DHT22;914;48.118;11.600;2023-05-23T00:13:54;20.30;95.20
1830;DHT22;914;48.118;11.600;2023-05-23T00:16:20;20.30;95.30
1830;DHT22;914;48.118;11.600;2023-05-23T00:18:47;20.30;95.30
1830;DHT22;914;48.118;11.600;2023-05-23T00:21:14;20.30;95.50
1830;DHT22;914;48.118;11.600;2023-05-23T00:23:41;20.40;95.30
1830;DHT22;914;48.118;11.600;2023-05-23T00:26:08;20.40;95.10
1830;DHT22;914;48.118;11.600;2023-05-23T00:28:34;20.40;95.10
1830;DHT22;914;48.118;11.600;2023-05-23T00:30:59;20.40;95.20
1830;DHT22;914;48.118;11.600;2023-05-23T00:33:25;20.10;95.50
1830;DHT22;914;48.118;11.600;2023-05-23T00:35:51;20.20;95.50
1830;DHT22;914;48.118;11.600;2023-05-23T00:38:16;20.20;95.80
1830;DHT22;914;48.118;11.600;2023-05-23T00:40:43;20.20;95.60
1830;DHT22;914;48.118;11.600;2023-05-23T00:43:08;20.20;95.40
1830;DHT22;914;48.118;11.600;2023-05-23T00:45:34;20.30;95.50
1830;DHT22;914;48.118;11.600;2023-05-23T00:48:01;20.20;95.50
1830;DHT22;914;48.118;11.600;2023-05-23T00:50:27;20.20;95.40
1830;DHT22;914;48.118;11.600;2023-05-23T00:52:54;20.20;95.50
1830;DHT22;914;48.118;11.600;2023-05-23T00:55:22;20.20;95.70
1830;DHT22;914;48.118;11.600;2023-05-23T00:57:49;20.20;95.60
1830;DHT22;914;48.118;11.600;2023-05-23T01:00:16;20.40;95.50
1830;DHT22;914;48.118;11.600;2023-05-23T01:02:45;20.50;95.20
1830;DHT22;914;48.118;11.600;2023-05-23T01:05:14;20.60;94.90
1830;DHT22;914;48.118;11.600;2023-05-23T01:07:45;20.60;94.90
1830;DHT22;914;48.118;11.600;2023-05-23T01:10:12;20.40;95.20
1830;DHT22;914;48.118;11.600;2023-05-23T01:12:49;20.40;95.40
1830;DHT22;914;48.118;11.600;2023-05-23T01:15:17;20.40;95.30
1830;DHT22;914;48.118;11.600;2023-05-23T01:20:33;20.30;95.60
1830;DHT22;914;48.118;11.600;2023-05-23T01:28:50;20.40;95.40
1830;DHT22;914;48.118;11.600;2023-05-23T01:31:18;20.40;95.40
1830;DHT22;914;48.118;11.600;2023-05-23T01:33:47;20.40;95.20
1830;DHT22;914;48.118;11.600;2023-05-23T01:36:14;20.30;95.30
1830;DHT22;914;48.118;11.600;2023-05-23T01:38:40;20.30;95.50
1830;DHT22;914;48.118;11.600;2023-05-23T01:41:06;20.40;95.30
1830;DHT22;914;48.118;11.600;2023-05-23T01:43:32;20.50;95.30
1830;DHT22;914;48.118;11.600;2023-05-23T01:45:58;20.50;95.20
1830;DHT22;914;48.118;11.600;2023-05-23T01:48:25;20.50;95.50
1830;DHT22;914;48.118;11.600;2023-05-23T01:50:52;20.50;95.00
1830;DHT22;914;48.118;11.600;2023-05-23T01:53:21;20.20;95.70
1830;DHT22;914;48.118;11.600;2023-05-23T01:55:47;20.30;95.60
1830;DHT22;914;48.118;11.600;2023-05-23T01:58:13;20.30;95.60
1830;DHT22;914;48.118;11.600;2023-05-23T02:00:39;20.20;95.70
1830;DHT22;914;48.118;11.600;2023-05-23T02:03:05;20.20;95.70
1830;DHT22;914;48.118;11.600;2023-05-23T02:05:30;20.30;95.50
1830;DHT22;914;48.118;11.600;2023-05-23T02:07:56;20.40;95.50
1830;DHT22;914;48.118;11.600;2023-05-23T02:10:21;20.30;95.40
1830;DHT22;914;48.118;11.600;2023-05-23T02:12:47;20.30;95.70
1830;DHT22;914;48.118;11.600;2023-05-23T02:15:13;20.20;95.60
1830;DHT22;914;48.118;11.600;2023-05-23T02:17:39;20.30;95.60
1830;DHT22;914;48.118;11.600;2023-05-23T02:20:06;20.20;95.80
1830;DHT22;914;48.118;11.600;2023-05-23T02:22:32;20.20;96.00
1830;DHT22;914;48.118;11.600;2023-05-23T02:24:58;20.30;95.50
1830;DHT22;914;48.118;11.600;2023-05-23T02:27:23;20.20;95.60
1830;DHT22;914;48.118;11.600;2023-05-23T02:29:49;20.20;95.80
1830;DHT22;914;48.118;11.600;2023-05-23T02:32:15;20.20;95.70
1830;DHT22;914;48.118;11.600;2023-05-23T02:34:41;20.10;95.70
1830;DHT22;914;48.118;11.600;2023-05-23T02:37:06;19.90;96.10
1830;DHT22;914;48.118;11.600;2023-05-23T02:39:34;19.80;96.10
1830;DHT22;914;48.118;11.600;2023-05-23T02:42:00;19.70;96.30
1830;DHT22;914;48.118;11.600;2023-05-23T02:44:27;19.80;96.50
1830;DHT22;914;48.118;11.600;2023-05-23T02:46:54;19.90;96.30
1830;DHT22;914;48.118;11.600;2023-05-23T02:49:19;19.90;96.30
1830;DHT22;914;48.118;11.600;2023-05-23T02:51:45;20.00;96.00
1830;DHT22;914;48.118;11.600;2023-05-23T02:54:11;19.80;96.40
1830;DHT22;914;48.118;11.600;2023-05-23T02:56:37;19.70;96.50
1830;DHT22;914;48.118;11.600;2023-05-23T02:59:03;19.70;96.50
1830;DHT22;914;48.118;11.600;2023-05-23T03:01:28;19.70;96.50
1830;DHT22;914;48.118;11.600;2023-05-23T03:03:54;19.70;96.50
1830;DHT22;914;48.118;11.600;2023-05-23T03:06:20;19.60;96.40
1830;DHT22;914;48.118;11.600;2023-05-23T03:08:47;19.60;96.60
1830;DHT22;914;48.118;11.600;2023-05-23T03:11:12;19.60;96.80
1830;DHT22;914;48.118;11.600;2023-05-23T03:13:38;19.50;97.10
1830;DHT22;914;48.118;11.600;2023-05-23T03:16:04;19.60;97.00
1830;DHT22;914;48.118;11.600;2023-05-23T03:18:29;19.50;97.20
1830;DHT22;914;48.118;11.600;2023-05-23T03:20:55;19.50;97.10
1830;DHT22;914;48.118;11.600;2023-05-23T03:23:21;19.40;97.40
1830;DHT22;914;48.118;11.600;2023-05-23T03:25:47;19.30;97.70
1830;DHT22;914;48.118;11.600;2023-05-23T03:28:13;19.40;97.70
1830;DHT22;914;48.118;11.600;2023-05-23T03:30:38;19.50;97.60
1830;DHT22;914;48.118;11.600;2023-05-23T03:33:04;19.60;97.50
1830;DHT22;914;48.118;11.600;2023-05-23T03:35:31;19.50;97.50
1830;DHT22;914;48.118;11.600;2023-05-23T03:37:57;19.70;97.40
1830;DHT22;914;48.118;11.600;2023-05-23T03:40:22;19.80;97.30
1830;DHT22;914;48.118;11.600;2023-05-23T03:42:50;19.80;97.30
1830;DHT22;914;48.118;11.600;2023-05-23T03:45:25;19.80;97.30
1830;DHT22;914;48.118;11.600;2023-05-23T03:47:51;19.60;97.60
1830;DHT22;914;48.118;11.600;2023-05-23T03:50:16;19.60;97.40
1830;DHT22;914;48.118;11.600;2023-05-23T03:52:42;19.50;97.90
1830;DHT22;914;48.118;11.600;2023-05-23T03:55:08;19.40;98.20
1830;DHT22;914;48.118;11.600;2023-05-23T03:57:35;19.40;98.20
1830;DHT22;914;48.118;11.600;2023-05-23T04:00:03;19.40;98.20
1830;DHT22;914;48.118;11.600;2023-05-23T04:02:30;19.40;98.40
1830;DHT22;914;48.118;11.600;2023-05-23T04:04:57;19.20;98.80
1830;DHT22;914;48.118;11.600;2023-05-23T04:07:23;19.30;98.30
1830;DHT22;914;48.118;11.600;2023-05-23T04:09:51;19.50;98.90
1830;DHT22;914;48.118;11.600;2023-05-23T04:12:17;19.50;98.30
1830;DHT22;914;48.118;11.600;2023-05-23T04:14:42;19.40;99.00
1830;DHT22;914;48.118;11.600;2023-05-23T04:17:08;19.20;98.90
1830;DHT22;914;48.118;11.600;2023-05-23T04:19:34;19.10;99.20
1830;DHT22;914;48.118;11.600;2023-05-23T04:22:00;19.10;99.50
1830;DHT22;914;48.118;11.600;2023-05-23T04:24:25;19.20;99.20
1830;DHT22;914;48.118;11.600;2023-05-23T04:26:51;19.30;99.20
1830;DHT22;914;48.118;11.600;2023-05-23T04:29:16;19.30;99.30
1830;DHT22;914;48.118;11.600;2023-05-23T04:31:42;19.20;99.60
1830;DHT22;914;48.118;11.600;2023-05-23T04:34:10;19.30;99.20
1830;DHT22;914;48.118;11.600;2023-05-23T04:36:36;19.40;99.00
1830;DHT22;914;48.118;11.600;2023-05-23T04:39:04;19.60;99.20
1830;DHT22;914;48.118;11.600;2023-05-23T04:41:30;19.70;98.90
1830;DHT22;914;48.118;11.600;2023-05-23T04:43:55;19.40;99.00
1830;DHT22;914;48.118;11.600;2023-05-23T04:46:23;19.50;99.50
1830;DHT22;914;48.118;11.600;2023-05-23T04:48:54;19.40;99.40
1830;DHT22;914;48.118;11.600;2023-05-23T04:51:20;19.50;99.50
1830;DHT22;914;48.118;11.600;2023-05-23T04:53:50;19.50;99.00
1830;DHT22;914;48.118;11.600;2023-05-23T04:56:16;19.50;99.10
1830;DHT22;914;48.118;11.600;2023-05-23T04:58:42;19.60;99.20
1830;DHT22;914;48.118;11.600;2023-05-23T05:01:10;19.60;98.90
1830;DHT22;914;48.118;11.600;2023-05-23T05:03:36;19.50;99.00
1830;DHT22;914;48.118;11.600;2023-05-23T05:06:02;19.60;99.00
1830;DHT22;914;48.118;11.600;2023-05-23T05:08:28;19.60;99.00
1830;DHT22;914;48.118;11.600;2023-05-23T05:10:54;19.60;99.50
1830;DHT22;914;48.118;11.600;2023-05-23T05:13:20;19.60;99.30
1830;DHT22;914;48.118;11.600;2023-05-23T05:15:45;19.70;99.20
1830;DHT22;914;48.118;11.600;2023-05-23T05:18:12;19.60;99.70
1830;DHT22;914;48.118;11.600;2023-05-23T05:20:38;19.70;99.20
1830;DHT22;914;48.118;11.600;2023-05-23T05:23:03;19.70;99.40
1830;DHT22;914;48.118;11.600;2023-05-23T05:25:29;19.70;99.60
1830;DHT22;914;48.118;11.600;2023-05-23T05:28:01;19.80;99.60
1830;DHT22;914;48.118;11.600;2023-05-23T05:30:31;19.80;99.60
1830;DHT22;914;48.118;11.600;2023-05-23T05:33:04;19.70;99.90
1830;DHT22;914;48.118;11.600;2023-05-23T05:35:30;19.80;99.70
1830;DHT22;914;48.118;11.600;2023-05-23T05:37:57;19.90;99.80
1830;DHT22;914;48.118;11.600;2023-05-23T05:40:23;20.30;99.20
1830;DHT22;914;48.118;11.600;2023-05-23T05:42:49;20.30;98.90
1830;DHT22;914;48.118;11.600;2023-05-23T05:45:15;20.20;98.90
1830;DHT22;914;48.118;11.600;2023-05-23T05:47:40;20.20;99.40
1830;DHT22;914;48.118;11.600;2023-05-23T05:50:06;20.30;99.40
1830;DHT22;914;48.118;11.600;2023-05-23T05:52:41;20.30;99.70
1830;DHT22;914;48.118;11.600;2023-05-23T05:55:09;20.40;99.40
1830;DHT22;914;48.118;11.600;2023-05-23T05:57:36;20.50;99.40
1830;DHT22;914;48.118;11.600;2023-05-23T06:00:09;20.70;99.60
1830;DHT22;914;48.118;11.600;2023-05-23T06:02:40;20.80;99.10
1830;DHT22;914;48.118;11.600;2023-05-23T06:05:08;21.10;99.40
1830;DHT22;914;48.118;11.600;2023-05-23T06:07:37;21.00;98.90
1830;DHT22;914;48.118;11.600;2023-05-23T06:10:03;21.00;98.60
1830;DHT22;914;48.118;11.600;2023-05-23T06:12:29;20.70;99.60
1830;DHT22;914;48.118;11.600;2023-05-23T06:14:54;20.60;99.80
1830;DHT22;914;48.118;11.600;2023-05-23T06:17:20;20.30;99.90
1830;DHT22;914;48.118;11.600;2023-05-23T06:19:46;20.60;99.90
1830;DHT22;914;48.118;11.600;2023-05-23T06:22:11;20.70;99.60
1830;DHT22;914;48.118;11.600;2023-05-23T06:24:37;20.90;99.50
1830;DHT22;914;48.118;11.600;2023-05-23T06:27:03;21.00;99.20
1830;DHT22;914;48.118;11.600;2023-05-23T06:29:28;21.20;99.20
1830;DHT22;914;48.118;11.600;2023-05-23T06:31:56;21.20;98.70
1830;DHT22;914;48.118;11.600;2023-05-23T06:34:21;21.00;99.30
1830;DHT22;914;48.118;11.600;2023-05-23T06:36:47;21.10;99.30
1830;DHT22;914;48.118;11.600;2023-05-23T06:39:13;21.10;99.30
1830;DHT22;914;48.118;11.600;2023-05-23T06:41:39;21.20;99.50
1830;DHT22;914;48.118;11.600;2023-05-23T06:44:05;21.30;99.50
1830;DHT22;914;48.118;11.600;2023-05-23T06:46:31;21.30;99.20
1830;DHT22;914;48.118;11.600;2023-05-23T06:48:56;21.00;99.50
1830;DHT22;914;48.118;11.600;2023-05-23T06:51:22;20.90;99.70
1830;DHT22;914;48.118;11.600;2023-05-23T06:53:48;21.10;99.70
1830;DHT22;914;48.118;11.600;2023-05-23T06:56:13;20.90;99.70
1830;DHT22;914;48.118;11.600;2023-05-23T06:58:39;21.00;99.90
1830;DHT22;914;48.118;11.600;2023-05-23T07:01:05;21.00;99.90
1830;DHT22;914;48.118;11.600;2023-05-23T07:03:31;21.30;99.90
1830;DHT22;914;48.118;11.600;2023-05-23T07:05:57;21.50;99.80
1830;DHT22;914;48.118;11.600;2023-05-23T07:08:23;21.50;99.20
1830;DHT22;914;48.118;11.600;2023-05-23T07:10:49;21.60;99.80
1830;DHT22;914;48.118;11.600;2023-05-23T07:13:15;21.70;99.10
1830;DHT22;914;48.118;11.600;2023-05-23T07:15:40;21.90;99.40
1830;DHT22;914;48.118;11.600;2023-05-23T07:18:06;21.70;99.10
1830;DHT22;914;48.118;11.600;2023-05-23T07:20:32;21.80;99.50
1830;DHT22;914;48.118;11.600;2023-05-23T07:22:58;22.00;99.20
1830;DHT22;914;48.118;11.600;2023-05-23T07:25:25;21.90;99.10
1830;DHT22;914;48.118;11.600;2023-05-23T07:27:51;22.10;99.10
1830;DHT22;914;48.118;11.600;2023-05-23T07:30:19;22.60;98.30
1830;DHT22;914;48.118;11.600;2023-05-23T07:32:47;22.20;98.60
1830;DHT22;914;48.118;11.600;2023-05-23T07:35:14;22.50;98.30
1830;DHT22;914;48.118;11.600;2023-05-23T07:37:42;22.20;98.90
1830;DHT22;914;48.118;11.600;2023-05-23T07:40:09;22.20;98.70
1830;DHT22;914;48.118;11.600;2023-05-23T07:42:35;22.00;98.70
1830;DHT22;914;48.118;11.600;2023-05-23T07:45:02;22.00;99.00
1830;DHT22;914;48.118;11.600;2023-05-23T07:47:28;21.60;99.60
1830;DHT22;914;48.118;11.600;2023-05-23T07:49:54;22.10;99.00
1830;DHT22;914;48.118;11.600;2023-05-23T07:52:19;22.10;99.10
1830;DHT22;914;48.118;11.600;2023-05-23T07:54:45;22.20;98.30
1830;DHT22;914;48.118;11.600;2023-05-23T07:57:11;22.10;98.60
1830;DHT22;914;48.118;11.600;2023-05-23T07:59:37;22.00;98.60
1830;DHT22;914;48.118;11.600;2023-05-23T08:02:03;22.10;98.80
1830;DHT22;914;48.118;11.600;2023-05-23T08:04:29;22.00;98.90
1830;DHT22;914;48.118;11.600;2023-05-23T08:06:56;22.00;98.90
1830;DHT22;914;48.118;11.600;2023-05-23T08:09:22;21.60;98.70
1830;DHT22;914;48.118;11.600;2023-05-23T08:11:48;21.90;99.20
1830;DHT22;914;48.118;11.600;2023-05-23T08:14:14;21.70;99.10
1830;DHT22;914;48.118;11.600;2023-05-23T08:16:39;21.80;98.90
1830;DHT22;914;48.118;11.600;2023-05-23T08:19:05;21.80;99.20
1830;DHT22;914;48.118;11.600;2023-05-23T08:21:31;21.70;99.30
1830;DHT22;914;48.118;11.600;2023-05-23T08:23:57;21.50;99.70
1830;DHT22;914;48.118;11.600;2023-05-23T08:26:23;21.60;99.70
1830;DHT22;914;48.118;11.600;2023-05-23T08:28:49;21.70;99.90
1830;DHT22;914;48.118;11.600;2023-05-23T08:31:15;21.50;99.20
1830;DHT22;914;48.118;11.600;2023-05-23T08:33:41;21.70;99.90
1830;DHT22;914;48.118;11.600;2023-05-23T08:36:09;22.00;99.70
1830;DHT22;914;48.118;11.600;2023-05-23T08:38:34;21.90;99.90
1830;DHT22;914;48.118;11.600;2023-05-23T08:41:00;22.10;99.00
1830;DHT22;914;48.118;11.600;2023-05-23T08:43:27;22.10;99.10
1830;DHT22;914;48.118;11.600;2023-05-23T08:45:53;22.20;98.80
1830;DHT22;914;48.118;11.600;2023-05-23T08:48:20;22.20;98.90
1830;DHT22;914;48.118;11.600;2023-05-23T08:50:47;22.20;98.40
1830;DHT22;914;48.118;11.600;2023-05-23T08:53:16;22.50;98.00
1830;DHT22;914;48.118;11.600;2023-05-23T08:55:46;22.50;97.70
1830;DHT22;914;48.118;11.600;2023-05-23T08:58:13;22.50;97.90
1830;DHT22;914;48.118;11.600;2023-05-23T09:00:39;22.00;98.20
1830;DHT22;914;48.118;11.600;2023-05-23T09:03:04;22.00;98.50
1830;DHT22;914;48.118;11.600;2023-05-23T09:05:31;21.90;98.90
1830;DHT22;914;48.118;11.600;2023-05-23T09:07:56;21.70;99.10
1830;DHT22;914;48.118;11.600;2023-05-23T09:10:22;22.00;98.30
1830;DHT22;914;48.118;11.600;2023-05-23T09:12:48;21.80;99.00
1830;DHT22;914;48.118;11.600;2023-05-23T09:15:14;21.90;98.80
1830;DHT22;914;48.118;11.600;2023-05-23T09:17:42;22.10;98.80
1830;DHT22;914;48.118;11.600;2023-05-23T09:20:13;22.50;98.40
1830;DHT22;914;48.118;11.600;2023-05-23T09:22:48;22.60;98.00
1830;DHT22;914;48.118;11.600;2023-05-23T09:25:14;22.50;98.20
1830;DHT22;914;48.118;11.600;2023-05-23T09:27:41;22.70;98.00
1830;DHT22;914;48.118;11.600;2023-05-23T09:30:08;22.70;97.70
1830;DHT22;914;48.118;11.600;2023-05-23T09:32:34;22.60;98.20
1830;DHT22;914;48.118;11.600;2023-05-23T09:35:05;22.60;98.50
1830;DHT22;914;48.118;11.600;2023-05-23T09:37:33;22.60;98.30
1830;DHT22;914;48.118;11.600;2023-05-23T09:40:11;22.50;98.40
1830;DHT22;914;48.118;11.600;2023-05-23T09:42:47;22.20;98.40
1830;DHT22;914;48.118;11.600;2023-05-23T09:45:13;22.40;98.30
1830;DHT22;914;48.118;11.600;2023-05-23T09:47:48;22.10;98.90
1830;DHT22;914;48.118;11.600;2023-05-23T09:50:16;22.20;98.60
1830;DHT22;914;48.118;11.600;2023-05-23T09:52:41;22.20;98.60
1830;DHT22;914;48.118;11.600;2023-05-23T09:55:07;22.40;98.30
1830;DHT22;914;48.118;11.600;2023-05-23T09:57:34;22.10;98.50
1830;DHT22;914;48.118;11.600;2023-05-23T10:00:02;22.00;98.70
1830;DHT22;914;48.118;11.600;2023-05-23T10:03:12;22.10;98.90
1830;DHT22;914;48.118;11.600;2023-05-23T10:05:47;21.80;98.80
1830;DHT22;914;48.118;11.600;2023-05-23T10:08:33;22.00;98.50
1830;DHT22;914;48.118;11.600;2023-05-23T10:13:46;22.00;98.90
1830;DHT22;914;48.118;11.600;2023-05-23T10:18:56;22.30;97.90
1830;DHT22;914;48.118;11.600;2023-05-23T10:21:43;22.40;98.60
1830;DHT22;914;48.118;11.600;2023-05-23T10:24:10;22.50;98.20
1830;DHT22;914;48.118;11.600;2023-05-23T10:26:37;22.50;97.90
1830;DHT22;914;48.118;11.600;2023-05-23T10:29:03;22.60;98.00
1830;DHT22;914;48.118;11.600;2023-05-23T10:31:30;22.60;97.90
1830;DHT22;914;48.118;11.600;2023-05-23T10:34:13;22.10;98.30
1830;DHT22;914;48.118;11.600;2023-05-23T10:36:52;22.40;98.10
1830;DHT22;914;48.118;11.600;2023-05-23T10:39:35;22.40;97.90
1830;DHT22;914;48.118;11.600;2023-05-23T10:45:20;22.40;97.50
1830;DHT22;914;48.118;11.600;2023-05-23T10:47:49;22.40;97.50
1830;DHT22;914;48.118;11.600;2023-05-23T10:50:32;22.00;98.20
1830;DHT22;914;48.118;11.600;2023-05-23T10:53:01;22.20;98.40
1830;DHT22;914;48.118;11.600;2023-05-23T10:55:33;21.80;97.20
1830;DHT22;914;48.118;11.600;2023-05-23T10:58:16;21.60;97.10
1830;DHT22;914;48.118;11.600;2023-05-23T11:00:52;21.50;97.90
1830;DHT22;914;48.118;11.600;2023-05-23T11:06:42;21.80;98.20
1830;DHT22;914;48.118;11.600;2023-05-23T11:09:16;22.30;97.20
1830;DHT22;914;48.118;11.600;2023-05-23T11:15:05;23.00;97.00
1830;DHT22;914;48.118;11.600;2023-05-23T11:17:28;23.60;97.40
1830;DHT22;914;48.118;11.600;2023-05-23T11:20:05;24.20;95.50
1830;DHT22;914;48.118;11.600;2023-05-23T11:22:32;24.40;95.00
1830;DHT22;914;48.118;11.600;2023-05-23T11:24:59;24.50;94.20
1830;DHT22;914;48.118;11.600;2023-05-23T11:27:35;24.70;94.40
1830;DHT22;914;48.118;11.600;2023-05-23T11:32:37;24.90;93.30
1830;DHT22;914;48.118;11.600;2023-05-23T11:35:05;25.10;92.40
1830;DHT22;914;48.118;11.600;2023-05-23T11:37:33;25.20;92.40
1830;DHT22;914;48.118;11.600;2023-05-23T11:40:32;25.00;92.90
1830;DHT22;914;48.118;11.600;2023-05-23T11:43:01;25.20;92.40
1830;DHT22;914;48.118;11.600;2023-05-23T11:45:31;25.40;92.50
1830;DHT22;914;48.118;11.600;2023-05-23T11:47:57;25.10;92.50
1830;DHT22;914;48.118;11.600;2023-05-23T11:50:23;25.10;92.60
1830;DHT22;914;48.118;11.600;2023-05-23T11:52:49;25.10;91.80
1830;DHT22;914;48.118;11.600;2023-05-23T11:55:19;25.40;92.10
1830;DHT22;914;48.118;11.600;2023-05-23T11:57:45;25.60;93.10
1830;DHT22;914;48.118;11.600;2023-05-23T12:00:11;26.10;90.10
1830;DHT22;914;48.118;11.600;2023-05-23T12:02:39;25.60;91.80
1830;DHT22;914;48.118;11.600;2023-05-23T12:05:09;25.70;92.20
1830;DHT22;914;48.118;11.600;2023-05-23T12:07:46;25.90;91.80
1830;DHT22;914;48.118;11.600;2023-05-23T12:10:16;26.10;91.20
1830;DHT22;914;48.118;11.600;2023-05-23T12:12:43;26.30;90.50
1830;DHT22;914;48.118;11.600;2023-05-23T12:15:10;26.20;90.20
1830;DHT22;914;48.118;11.600;2023-05-23T12:17:46;26.00;90.60
1830;DHT22;914;48.118;11.600;2023-05-23T12:20:11;25.40;90.60
1830;DHT22;914;48.118;11.600;2023-05-23T12:22:38;25.20;90.90
1830;DHT22;914;48.118;11.600;2023-05-23T12:25:07;25.40;91.60
1830;DHT22;914;48.118;11.600;2023-05-23T12:27:34;26.00;90.30
1830;DHT22;914;48.118;11.600;2023-05-23T12:32:44;26.50;89.30
1830;DHT22;914;48.118;11.600;2023-05-23T12:35:11;26.60;88.00
1830;DHT22;914;48.118;11.600;2023-05-23T12:37:44;26.10;88.30
1830;DHT22;914;48.118;11.600;2023-05-23T12:40:17;25.50;89.70
1830;DHT22;914;48.118;11.600;2023-05-23T12:42:50;24.80;90.10
1830;DHT22;914;48.118;11.600;2023-05-23T12:45:17;24.80;90.60
1830;DHT22;914;48.118;11.600;2023-05-23T12:47:43;25.20;91.90
1830;DHT22;914;48.118;11.600;2023-05-23T12:50:09;25.10;91.30
1830;DHT22;914;48.118;11.600;2023-05-23T12:52:36;25.10;91.10
1830;DHT22;914;48.118;11.600;2023-05-23T12:55:04;24.80;91.70
1830;DHT22;914;48.118;11.600;2023-05-23T12:57:30;24.30;91.60
1830;DHT22;914;48.118;11.600;2023-05-23T12:59:56;24.10;91.40
1830;DHT22;914;48.118;11.600;2023-05-23T13:02:21;24.30;92.00
1830;DHT22;914;48.118;11.600;2023-05-23T13:04:47;25.40;90.00
1830;DHT22;914;48.118;11.600;2023-05-23T13:07:13;26.70;90.30
1830;DHT22;914;48.118;11.600;2023-05-23T13:09:41;27.30;85.60
1830;DHT22;914;48.118;11.600;2023-05-23T13:12:07;27.30;87.00
1830;DHT22;914;48.118;11.600;2023-05-23T13:14:33;26.80;86.80
1830;DHT22;914;48.118;11.600;2023-05-23T13:16:59;25.90;88.20
1830;DHT22;914;48.118;11.600;2023-05-23T13:19:24;25.80;89.70
1830;DHT22;914;48.118;11.600;2023-05-23T13:21:51;25.60;89.90
1830;DHT22;914;48.118;11.600;2023-05-23T13:24:16;25.70;88.20
1830;DHT22;914;48.118;11.600;2023-05-23T13:26:42;25.50;88.30
1830;DHT22;914;48.118;11.600;2023-05-23T13:29:07;25.50;88.30
1830;DHT22;914;48.118;11.600;2023-05-23T13:31:33;25.50;88.20
1830;DHT22;914;48.118;11.600;2023-05-23T13:33:59;25.80;88.50
1830;DHT22;914;48.118;11.600;2023-05-23T13:36:24;26.00;87.90
1830;DHT22;914;48.118;11.600;2023-05-23T13:38:51;25.50;87.80
1830;DHT22;914;48.118;11.600;2023-05-23T13:41:18;25.50;88.50
1830;DHT22;914;48.118;11.600;2023-05-23T13:43:44;25.80;88.10
1830;DHT22;914;48.118;11.600;2023-05-23T13:46:11;25.60;87.50
1830;DHT22;914;48.118;11.600;2023-05-23T13:48:37;24.60;88.80
1830;DHT22;914;48.118;11.600;2023-05-23T13:51:03;24.60;90.00
1830;DHT22;914;48.118;11.600;2023-05-23T13:53:29;24.20;88.60
1830;DHT22;914;48.118;11.600;2023-05-23T13:55:55;24.80;88.60
1830;DHT22;914;48.118;11.600;2023-05-23T13:58:21;25.20;89.40
1830;DHT22;914;48.118;11.600;2023-05-23T14:00:47;25.50;89.10
1830;DHT22;914;48.118;11.600;2023-05-23T14:03:13;25.80;85.00
1830;DHT22;914;48.118;11.600;2023-05-23T14:05:43;25.20;87.10
1830;DHT22;914;48.118;11.600;2023-05-23T14:08:08;25.00;87.60
1830;DHT22;914;48.118;11.600;2023-05-23T14:10:35;24.90;88.70
1830;DHT22;914;48.118;11.600;2023-05-23T14:13:01;24.70;88.00
1830;DHT22;914;48.118;11.600;2023-05-23T14:15:27;24.70;87.90
1830;DHT22;914;48.118;11.600;2023-05-23T14:17:52;24.80;89.40
1830;DHT22;914;48.118;11.600;2023-05-23T14:20:21;24.90;90.50
1830;DHT22;914;48.118;11.600;2023-05-23T14:22:47;24.50;91.30
1830;DHT22;914;48.118;11.600;2023-05-23T14:25:14;24.30;91.90
1830;DHT22;914;48.118;11.600;2023-05-23T14:27:39;24.00;92.80
1830;DHT22;914;48.118;11.600;2023-05-23T14:30:06;23.80;93.30
1830;DHT22;914;48.118;11.600;2023-05-23T14:32:33;23.80;93.10
1830;DHT22;914;48.118;11.600;2023-05-23T14:35:09;23.80;93.50
1830;DHT22;914;48.118;11.600;2023-05-23T14:37:36;23.90;93.20
1830;DHT22;914;48.118;11.600;2023-05-23T14:40:04;23.80;93.30
1830;DHT22;914;48.118;11.600;2023-05-23T14:42:29;23.70;93.40
1830;DHT22;914;48.118;11.600;2023-05-23T14:44:55;23.70;94.20
1830;DHT22;914;48.118;11.600;2023-05-23T14:47:21;24.00;93.60
1830;DHT22;914;48.118;11.600;2023-05-23T14:49:48;24.00;93.70
1830;DHT22;914;48.118;11.600;2023-05-23T14:52:13;23.90;93.40
1830;DHT22;914;48.118;11.600;2023-05-23T14:54:39;23.90;93.70
1830;DHT22;914;48.118;11.600;2023-05-23T14:57:11;23.90;93.70
1830;DHT22;914;48.118;11.600;2023-05-23T14:59:36;23.70;93.50
1830;DHT22;914;48.118;11.600;2023-05-23T15:02:05;23.40;94.00
1830;DHT22;914;48.118;11.600;2023-05-23T15:04:37;23.10;94.80
1830;DHT22;914;48.118;11.600;2023-05-23T15:07:05;23.50;94.90
1830;DHT22;914;48.118;11.600;2023-05-23T15:09:30;23.30;94.40
1830;DHT22;914;48.118;11.600;2023-05-23T15:11:56;23.10;94.70
1830;DHT22;914;48.118;11.600;2023-05-23T15:14:22;23.00;94.90
1830;DHT22;914;48.118;11.600;2023-05-23T15:16:55;23.10;94.70
1830;DHT22;914;48.118;11.600;2023-05-23T15:19:20;22.90;95.20
1830;DHT22;914;48.118;11.600;2023-05-23T15:21:46;22.90;95.20
1830;DHT22;914;48.118;11.600;2023-05-23T15:24:12;22.80;95.50
1830;DHT22;914;48.118;11.600;2023-05-23T15:26:37;22.70;94.20
1830;DHT22;914;48.118;11.600;2023-05-23T15:29:03;22.50;92.90
1830;DHT22;914;48.118;11.600;2023-05-23T15:31:30;22.60;92.30
1830;DHT22;914;48.118;11.600;2023-05-23T15:33:55;22.40;93.00
1830;DHT22;914;48.118;11.600;2023-05-23T15:36:21;22.10;93.40
1830;DHT22;914;48.118;11.600;2023-05-23T15:38:47;22.30;93.10
1830;DHT22;914;48.118;11.600;2023-05-23T15:41:13;22.10;92.30
1830;DHT22;914;48.118;11.600;2023-05-23T15:43:42;22.40;92.20
1830;DHT22;914;48.118;11.600;2023-05-23T15:46:08;22.10;92.20
1830;DHT22;914;48.118;11.600;2023-05-23T15:48:34;22.30;91.60
1830;DHT22;914;48.118;11.600;2023-05-23T15:51:00;22.40;91.60
1830;DHT22;914;48.118;11.600;2023-05-23T15:53:26;22.50;91.10
1830;DHT22;914;48.118;11.600;2023-05-23T15:55:52;22.60;90.80
1830;DHT22;914;48.118;11.600;2023-05-23T15:58:20;22.50;91.00
1830;DHT22;914;48.118;11.600;2023-05-23T16:00:46;22.30;90.80
1830;DHT22;914;48.118;11.600;2023-05-23T16:03:12;22.30;90.30
1830;DHT22;914;48.118;11.600;2023-05-23T16:05:38;22.20;90.00
1830;DHT22;914;48.118;11.600;2023-05-23T16:08:04;21.80;90.30
1830;DHT22;914;48.118;11.600;2023-05-23T16:10:31;22.10;89.40
1830;DHT22;914;48.118;11.600;2023-05-23T16:12:57;22.20;88.90
1830;DHT22;914;48.118;11.600;2023-05-23T16:15:23;21.90;88.40
1830;DHT22;914;48.118;11.600;2023-05-23T16:17:48;22.10;87.40
1830;DHT22;914;48.118;11.600;2023-05-23T16:20:14;21.90;87.40
1830;DHT22;914;48.118;11.600;2023-05-23T16:22:40;22.00;88.40
1830;DHT22;914;48.118;11.600;2023-05-23T16:25:06;22.30;87.60
1830;DHT22;914;48.118;11.600;2023-05-23T16:27:33;22.00;87.10
1830;DHT22;914;48.118;11.600;2023-05-23T16:29:59;22.20;87.30
1830;DHT22;914;48.118;11.600;2023-05-23T16:32:27;22.20;86.70